sensor_id;sensor_type;location;lat;lon;timestamp;P1;durP1;ratioP1;P2;durP2;ratioP2
68106;SDS011;54892;47.488;19.026;2022-09-24T00:02:52;3.28;;;1.70;;
68106;SDS011;54892;47.488;19.026;2022-09-24T00:06:00;1.70;;;1.45;;
68106;SDS011;54892;47.488;19.026;2022-09-24T00:09:04;3.60;;;1.73;;
68106;SDS011;54892;47.488;19.026;2022-09-24T00:12:07;2.70;;;1.60;;
68106;SDS011;54892;47.488;19.026;2022-09-24T00:15:13;2.20;;;1.60;;
68106;SDS011;54892;47.488;19.026;2022-09-24T00:18:17;2.97;;;1.55;;
68106;SDS011;54892;47.488;19.026;2022-09-24T00:21:23;2.62;;;1.65;;
68106;SDS011;54892;47.488;19.026;2022-09-24T00:24:29;1.65;;;1.50;;
68106;SDS011;54892;47.488;19.026;2022-09-24T00:27:49;1.60;;;1.42;;
68106;SDS011;54892;47.488;19.026;2022-09-24T00:30:52;2.58;;;1.70;;
68106;SDS011;54892;47.488;19.026;2022-09-24T00:33:56;2.47;;;1.40;;
68106;SDS011;54892;47.488;19.026;2022-09-24T00:37:01;3.30;;;1.50;;
68106;SDS011;54892;47.488;19.026;2022-09-24T00:40:06;2.05;;;1.60;;
68106;SDS011;54892;47.488;19.026;2022-09-24T00:43:20;3.55;;;1.48;;
68106;SDS011;54892;47.488;19.026;2022-09-24T00:46:25;4.30;;;1.58;;
68106;SDS011;54892;47.488;19.026;2022-09-24T00:49:33;2.03;;;1.40;;
68106;SDS011;54892;47.488;19.026;2022-09-24T00:52:37;5.03;;;1.33;;
68106;SDS011;54892;47.488;19.026;2022-09-24T00:55:46;4.70;;;1.40;;
68106;SDS011;54892;47.488;19.026;2022-09-24T00:58:55;3.25;;;1.30;;
68106;SDS011;54892;47.488;19.026;2022-09-24T01:02:03;2.50;;;1.42;;
68106;SDS011;54892;47.488;19.026;2022-09-24T01:05:07;2.95;;;1.30;;
68106;SDS011;54892;47.488;19.026;2022-09-24T01:08:11;4.07;;;1.50;;
68106;SDS011;54892;47.488;19.026;2022-09-24T01:11:20;2.47;;;1.48;;
68106;SDS011;54892;47.488;19.026;2022-09-24T01:14:35;5.43;;;1.48;;
68106;SDS011;54892;47.488;19.026;2022-09-24T01:17:51;1.83;;;1.50;;
68106;SDS011;54892;47.488;19.026;2022-09-24T01:21:06;2.95;;;1.55;;
68106;SDS011;54892;47.488;19.026;2022-09-24T01:24:20;3.45;;;1.60;;
68106;SDS011;54892;47.488;19.026;2022-09-24T01:27:39;2.55;;;1.52;;
68106;SDS011;54892;47.488;19.026;2022-09-24T01:30:58;4.50;;;1.40;;
68106;SDS011;54892;47.488;19.026;2022-09-24T01:34:05;1.90;;;1.30;;
68106;SDS011;54892;47.488;19.026;2022-09-24T01:37:13;3.92;;;1.30;;
68106;SDS011;54892;47.488;19.026;2022-09-24T01:40:19;1.50;;;1.15;;
68106;SDS011;54892;47.488;19.026;2022-09-24T01:43:26;1.87;;;1.45;;
68106;SDS011;54892;47.488;19.026;2022-09-24T01:46:32;2.60;;;1.37;;
68106;SDS011;54892;47.488;19.026;2022-09-24T01:49:35;1.40;;;1.23;;
68106;SDS011;54892;47.488;19.026;2022-09-24T01:52:39;1.70;;;1.40;;
68106;SDS011;54892;47.488;19.026;2022-09-24T01:55:49;3.15;;;1.42;;
68106;SDS011;54892;47.488;19.026;2022-09-24T01:58:58;1.80;;;1.50;;
68106;SDS011;54892;47.488;19.026;2022-09-24T02:02:06;2.75;;;1.80;;
68106;SDS011;54892;47.488;19.026;2022-09-24T02:05:15;2.45;;;1.60;;
68106;SDS011;54892;47.488;19.026;2022-09-24T02:08:25;1.98;;;1.58;;
68106;SDS011;54892;47.488;19.026;2022-09-24T02:11:33;1.80;;;1.55;;
68106;SDS011;54892;47.488;19.026;2022-09-24T02:14:39;4.70;;;1.40;;
68106;SDS011;54892;47.488;19.026;2022-09-24T02:17:47;1.60;;;1.12;;
68106;SDS011;54892;47.488;19.026;2022-09-24T02:20:56;1.65;;;1.40;;
68106;SDS011;54892;47.488;19.026;2022-09-24T02:24:03;2.95;;;1.30;;
68106;SDS011;54892;47.488;19.026;2022-09-24T02:27:08;3.62;;;1.60;;
68106;SDS011;54892;47.488;19.026;2022-09-24T02:30:12;2.75;;;1.52;;
68106;SDS011;54892;47.488;19.026;2022-09-24T02:33:16;7.40;;;1.60;;
68106;SDS011;54892;47.488;19.026;2022-09-24T02:36:40;3.45;;;1.55;;
68106;SDS011;54892;47.488;19.026;2022-09-24T02:39:44;3.75;;;1.50;;
68106;SDS011;54892;47.488;19.026;2022-09-24T02:42:47;5.70;;;1.95;;
68106;SDS011;54892;47.488;19.026;2022-09-24T02:45:50;2.58;;;1.40;;
68106;SDS011;54892;47.488;19.026;2022-09-24T02:48:55;1.92;;;1.45;;
68106;SDS011;54892;47.488;19.026;2022-09-24T02:51:58;4.82;;;1.60;;
68106;SDS011;54892;47.488;19.026;2022-09-24T02:55:01;2.17;;;1.62;;
68106;SDS011;54892;47.488;19.026;2022-09-24T02:58:04;2.85;;;1.65;;
68106;SDS011;54892;47.488;19.026;2022-09-24T03:01:07;1.70;;;1.50;;
68106;SDS011;54892;47.488;19.026;2022-09-24T03:04:12;2.50;;;1.30;;
68106;SDS011;54892;47.488;19.026;2022-09-24T03:07:15;2.00;;;1.50;;
68106;SDS011;54892;47.488;19.026;2022-09-24T03:10:18;3.42;;;1.48;;
68106;SDS011;54892;47.488;19.026;2022-09-24T03:13:22;1.55;;;1.27;;
68106;SDS011;54892;47.488;19.026;2022-09-24T03:16:26;2.08;;;1.37;;
68106;SDS011;54892;47.488;19.026;2022-09-24T03:19:30;2.20;;;1.55;;
68106;SDS011;54892;47.488;19.026;2022-09-24T03:22:33;2.28;;;1.23;;
68106;SDS011;54892;47.488;19.026;2022-09-24T03:25:37;1.85;;;1.35;;
68106;SDS011;54892;47.488;19.026;2022-09-24T03:28:40;1.83;;;1.40;;
68106;SDS011;54892;47.488;19.026;2022-09-24T03:31:44;2.45;;;1.40;;
68106;SDS011;54892;47.488;19.026;2022-09-24T03:34:48;1.73;;;1.30;;
68106;SDS011;54892;47.488;19.026;2022-09-24T03:37:54;1.50;;;1.20;;
68106;SDS011;54892;47.488;19.026;2022-09-24T03:40:57;2.22;;;1.33;;
68106;SDS011;54892;47.488;19.026;2022-09-24T03:44:01;1.75;;;1.20;;
68106;SDS011;54892;47.488;19.026;2022-09-24T03:47:04;5.03;;;1.30;;
68106;SDS011;54892;47.488;19.026;2022-09-24T03:50:09;2.10;;;1.50;;
68106;SDS011;54892;47.488;19.026;2022-09-24T03:53:13;6.85;;;1.95;;
68106;SDS011;54892;47.488;19.026;2022-09-24T03:56:16;4.32;;;1.80;;
68106;SDS011;54892;47.488;19.026;2022-09-24T03:59:20;5.37;;;1.95;;
68106;SDS011;54892;47.488;19.026;2022-09-24T04:02:23;2.85;;;1.77;;
68106;SDS011;54892;47.488;19.026;2022-09-24T04:05:28;4.90;;;1.87;;
68106;SDS011;54892;47.488;19.026;2022-09-24T04:08:31;5.05;;;1.65;;
68106;SDS011;54892;47.488;19.026;2022-09-24T04:11:34;5.32;;;1.90;;
68106;SDS011;54892;47.488;19.026;2022-09-24T04:14:39;2.30;;;1.50;;
68106;SDS011;54892;47.488;19.026;2022-09-24T04:17:42;7.22;;;2.17;;
68106;SDS011;54892;47.488;19.026;2022-09-24T04:20:57;3.05;;;1.90;;
68106;SDS011;54892;47.488;19.026;2022-09-24T04:24:01;4.75;;;1.98;;
68106;SDS011;54892;47.488;19.026;2022-09-24T04:27:04;2.58;;;1.98;;
68106;SDS011;54892;47.488;19.026;2022-09-24T04:30:08;3.90;;;2.10;;
68106;SDS011;54892;47.488;19.026;2022-09-24T04:33:13;8.57;;;2.37;;
68106;SDS011;54892;47.488;19.026;2022-09-24T04:36:17;3.87;;;2.17;;
68106;SDS011;54892;47.488;19.026;2022-09-24T04:39:20;3.42;;;2.05;;
68106;SDS011;54892;47.488;19.026;2022-09-24T04:42:27;4.30;;;2.05;;
68106;SDS011;54892;47.488;19.026;2022-09-24T04:45:30;3.00;;;1.77;;
68106;SDS011;54892;47.488;19.026;2022-09-24T04:48:33;4.35;;;2.00;;
68106;SDS011;54892;47.488;19.026;2022-09-24T04:51:40;3.15;;;1.70;;
68106;SDS011;54892;47.488;19.026;2022-09-24T04:54:43;3.75;;;2.03;;
68106;SDS011;54892;47.488;19.026;2022-09-24T04:57:47;7.55;;;1.80;;
68106;SDS011;54892;47.488;19.026;2022-09-24T05:00:51;3.25;;;1.75;;
68106;SDS011;54892;47.488;19.026;2022-09-24T05:03:55;3.62;;;1.35;;
68106;SDS011;54892;47.488;19.026;2022-09-24T05:07:00;3.28;;;1.90;;
68106;SDS011;54892;47.488;19.026;2022-09-24T05:10:03;3.50;;;1.95;;
68106;SDS011;54892;47.488;19.026;2022-09-24T05:13:07;5.18;;;2.00;;
68106;SDS011;54892;47.488;19.026;2022-09-24T05:16:11;5.05;;;2.33;;
68106;SDS011;54892;47.488;19.026;2022-09-24T05:19:14;3.35;;;1.70;;
68106;SDS011;54892;47.488;19.026;2022-09-24T05:22:19;5.25;;;2.30;;
68106;SDS011;54892;47.488;19.026;2022-09-24T05:25:22;4.35;;;1.85;;
68106;SDS011;54892;47.488;19.026;2022-09-24T05:28:25;4.07;;;1.95;;
68106;SDS011;54892;47.488;19.026;2022-09-24T05:31:29;3.50;;;2.20;;
68106;SDS011;54892;47.488;19.026;2022-09-24T05:34:32;4.93;;;2.10;;
68106;SDS011;54892;47.488;19.026;2022-09-24T05:37:38;4.18;;;2.03;;
68106;SDS011;54892;47.488;19.026;2022-09-24T05:40:41;3.92;;;1.95;;
68106;SDS011;54892;47.488;19.026;2022-09-24T05:43:50;5.10;;;2.00;;
68106;SDS011;54892;47.488;19.026;2022-09-24T05:46:53;5.30;;;2.15;;
68106;SDS011;54892;47.488;19.026;2022-09-24T05:49:56;2.60;;;2.05;;
68106;SDS011;54892;47.488;19.026;2022-09-24T05:53:01;5.47;;;2.10;;
68106;SDS011;54892;47.488;19.026;2022-09-24T05:56:04;3.90;;;2.25;;
68106;SDS011;54892;47.488;19.026;2022-09-24T05:59:07;4.53;;;2.83;;
68106;SDS011;54892;47.488;19.026;2022-09-24T06:02:11;6.25;;;3.08;;
68106;SDS011;54892;47.488;19.026;2022-09-24T06:05:14;5.80;;;2.95;;
68106;SDS011;54892;47.488;19.026;2022-09-24T06:08:19;4.85;;;2.75;;
68106;SDS011;54892;47.488;19.026;2022-09-24T06:11:22;13.13;;;3.42;;
68106;SDS011;54892;47.488;19.026;2022-09-24T06:14:25;10.15;;;3.90;;
68106;SDS011;54892;47.488;19.026;2022-09-24T06:17:28;5.12;;;3.40;;
68106;SDS011;54892;47.488;19.026;2022-09-24T06:20:32;10.18;;;4.00;;
68106;SDS011;54892;47.488;19.026;2022-09-24T06:23:37;5.82;;;3.70;;
68106;SDS011;54892;47.488;19.026;2022-09-24T06:26:41;7.05;;;4.12;;
68106;SDS011;54892;47.488;19.026;2022-09-24T06:29:44;6.53;;;4.50;;
68106;SDS011;54892;47.488;19.026;2022-09-24T06:32:47;11.45;;;4.37;;
68106;SDS011;54892;47.488;19.026;2022-09-24T06:35:50;11.30;;;4.60;;
68106;SDS011;54892;47.488;19.026;2022-09-24T06:38:55;7.55;;;4.78;;
68106;SDS011;54892;47.488;19.026;2022-09-24T06:41:59;7.30;;;4.55;;
68106;SDS011;54892;47.488;19.026;2022-09-24T06:45:03;12.60;;;4.78;;
68106;SDS011;54892;47.488;19.026;2022-09-24T06:48:07;7.97;;;4.85;;
68106;SDS011;54892;47.488;19.026;2022-09-24T06:51:12;12.52;;;4.90;;
68106;SDS011;54892;47.488;19.026;2022-09-24T06:54:17;10.30;;;5.43;;
68106;SDS011;54892;47.488;19.026;2022-09-24T06:57:20;8.30;;;4.85;;
68106;SDS011;54892;47.488;19.026;2022-09-24T07:00:27;7.53;;;5.12;;
68106;SDS011;54892;47.488;19.026;2022-09-24T07:03:30;8.88;;;5.15;;
68106;SDS011;54892;47.488;19.026;2022-09-24T07:06:34;10.13;;;5.40;;
68106;SDS011;54892;47.488;19.026;2022-09-24T07:09:52;11.50;;;6.18;;
68106;SDS011;54892;47.488;19.026;2022-09-24T07:12:55;9.93;;;5.78;;
68106;SDS011;54892;47.488;19.026;2022-09-24T07:15:58;14.32;;;6.25;;
68106;SDS011;54892;47.488;19.026;2022-09-24T07:19:02;8.45;;;5.40;;
68106;SDS011;54892;47.488;19.026;2022-09-24T07:22:06;9.68;;;5.75;;
68106;SDS011;54892;47.488;19.026;2022-09-24T07:25:10;9.10;;;5.60;;
68106;SDS011;54892;47.488;19.026;2022-09-24T07:28:14;8.87;;;5.67;;
68106;SDS011;54892;47.488;19.026;2022-09-24T07:31:18;7.60;;;5.25;;
68106;SDS011;54892;47.488;19.026;2022-09-24T07:34:21;10.95;;;6.65;;
68106;SDS011;54892;47.488;19.026;2022-09-24T07:37:24;9.95;;;7.00;;
68106;SDS011;54892;47.488;19.026;2022-09-24T07:40:29;11.80;;;7.15;;
68106;SDS011;54892;47.488;19.026;2022-09-24T07:46:36;10.30;;;6.37;;
68106;SDS011;54892;47.488;19.026;2022-09-24T07:49:39;12.02;;;6.90;;
68106;SDS011;54892;47.488;19.026;2022-09-24T07:52:43;12.88;;;6.65;;
68106;SDS011;54892;47.488;19.026;2022-09-24T07:55:53;15.52;;;7.62;;
68106;SDS011;54892;47.488;19.026;2022-09-24T07:59:00;13.00;;;7.03;;
68106;SDS011;54892;47.488;19.026;2022-09-24T08:02:07;10.75;;;7.35;;
68106;SDS011;54892;47.488;19.026;2022-09-24T08:05:12;18.62;;;7.80;;
68106;SDS011;54892;47.488;19.026;2022-09-24T08:08:15;13.60;;;7.80;;
68106;SDS011;54892;47.488;19.026;2022-09-24T08:11:22;12.98;;;7.62;;
68106;SDS011;54892;47.488;19.026;2022-09-24T08:14:25;16.83;;;7.85;;
68106;SDS011;54892;47.488;19.026;2022-09-24T08:17:28;13.57;;;7.68;;
68106;SDS011;54892;47.488;19.026;2022-09-24T08:20:31;15.77;;;7.47;;
68106;SDS011;54892;47.488;19.026;2022-09-24T08:23:35;18.23;;;7.32;;
68106;SDS011;54892;47.488;19.026;2022-09-24T08:26:39;12.93;;;7.60;;
68106;SDS011;54892;47.488;19.026;2022-09-24T08:29:42;14.95;;;7.65;;
68106;SDS011;54892;47.488;19.026;2022-09-24T08:32:45;14.55;;;7.28;;
68106;SDS011;54892;47.488;19.026;2022-09-24T08:35:49;16.45;;;7.95;;
68106;SDS011;54892;47.488;19.026;2022-09-24T08:38:52;12.85;;;7.43;;
68106;SDS011;54892;47.488;19.026;2022-09-24T08:41:58;16.55;;;7.65;;
68106;SDS011;54892;47.488;19.026;2022-09-24T08:45:04;10.25;;;7.03;;
68106;SDS011;54892;47.488;19.026;2022-09-24T08:48:28;11.90;;;7.05;;
68106;SDS011;54892;47.488;19.026;2022-09-24T08:51:34;11.85;;;6.30;;
68106;SDS011;54892;47.488;19.026;2022-09-24T08:54:42;11.63;;;6.12;;
68106;SDS011;54892;47.488;19.026;2022-09-24T08:57:53;12.65;;;6.30;;
68106;SDS011;54892;47.488;19.026;2022-09-24T09:01:04;9.80;;;5.68;;
68106;SDS011;54892;47.488;19.026;2022-09-24T09:04:17;12.60;;;5.28;;
68106;SDS011;54892;47.488;19.026;2022-09-24T09:07:30;10.35;;;5.28;;
68106;SDS011;54892;47.488;19.026;2022-09-24T09:10:37;8.77;;;5.35;;
68106;SDS011;54892;47.488;19.026;2022-09-24T09:13:44;7.37;;;4.93;;
68106;SDS011;54892;47.488;19.026;2022-09-24T09:16:54;9.10;;;5.20;;
68106;SDS011;54892;47.488;19.026;2022-09-24T09:20:01;11.77;;;5.32;;
68106;SDS011;54892;47.488;19.026;2022-09-24T09:23:11;11.27;;;5.43;;
68106;SDS011;54892;47.488;19.026;2022-09-24T09:26:17;7.45;;;4.85;;
68106;SDS011;54892;47.488;19.026;2022-09-24T09:29:22;10.93;;;5.15;;
68106;SDS011;54892;47.488;19.026;2022-09-24T09:32:35;6.87;;;4.18;;
68106;SDS011;54892;47.488;19.026;2022-09-24T09:35:49;10.48;;;4.72;;
68106;SDS011;54892;47.488;19.026;2022-09-24T09:39:03;12.73;;;4.18;;
68106;SDS011;54892;47.488;19.026;2022-09-24T09:42:23;5.43;;;3.45;;
68106;SDS011;54892;47.488;19.026;2022-09-24T09:45:32;5.90;;;3.50;;
68106;SDS011;54892;47.488;19.026;2022-09-24T09:48:42;8.13;;;3.90;;
68106;SDS011;54892;47.488;19.026;2022-09-24T09:51:47;6.28;;;3.85;;
68106;SDS011;54892;47.488;19.026;2022-09-24T09:54:52;5.68;;;3.50;;
68106;SDS011;54892;47.488;19.026;2022-09-24T09:58:00;7.12;;;3.22;;
68106;SDS011;54892;47.488;19.026;2022-09-24T10:01:14;6.07;;;3.30;;
68106;SDS011;54892;47.488;19.026;2022-09-24T10:07:43;3.92;;;2.60;;
68106;SDS011;54892;47.488;19.026;2022-09-24T10:10:51;3.67;;;2.50;;
68106;SDS011;54892;47.488;19.026;2022-09-24T10:14:04;3.65;;;2.12;;
68106;SDS011;54892;47.488;19.026;2022-09-24T10:17:14;5.82;;;3.10;;
68106;SDS011;54892;47.488;19.026;2022-09-24T10:20:20;8.73;;;2.40;;
68106;SDS011;54892;47.488;19.026;2022-09-24T10:23:28;3.15;;;2.00;;
68106;SDS011;54892;47.488;19.026;2022-09-24T10:26:39;4.55;;;1.60;;
68106;SDS011;54892;47.488;19.026;2022-09-24T10:29:45;2.53;;;1.67;;
68106;SDS011;54892;47.488;19.026;2022-09-24T10:33:07;4.53;;;2.10;;
68106;SDS011;54892;47.488;19.026;2022-09-24T10:36:13;3.15;;;1.67;;
68106;SDS011;54892;47.488;19.026;2022-09-24T10:39:19;5.70;;;2.60;;
68106;SDS011;54892;47.488;19.026;2022-09-24T10:42:23;3.33;;;1.55;;
68106;SDS011;54892;47.488;19.026;2022-09-24T10:45:30;2.80;;;1.80;;
68106;SDS011;54892;47.488;19.026;2022-09-24T10:48:46;3.25;;;1.40;;
68106;SDS011;54892;47.488;19.026;2022-09-24T10:51:55;3.08;;;1.30;;
68106;SDS011;54892;47.488;19.026;2022-09-24T10:55:07;4.03;;;1.37;;
68106;SDS011;54892;47.488;19.026;2022-09-24T10:58:33;3.10;;;1.42;;
68106;SDS011;54892;47.488;19.026;2022-09-24T11:01:54;1.80;;;1.30;;
68106;SDS011;54892;47.488;19.026;2022-09-24T11:05:17;3.75;;;2.28;;
68106;SDS011;54892;47.488;19.026;2022-09-24T11:08:25;1.87;;;1.48;;
68106;SDS011;54892;47.488;19.026;2022-09-24T11:11:45;3.85;;;1.50;;
68106;SDS011;54892;47.488;19.026;2022-09-24T11:15:04;3.17;;;1.67;;
68106;SDS011;54892;47.488;19.026;2022-09-24T11:18:19;2.60;;;1.77;;
68106;SDS011;54892;47.488;19.026;2022-09-24T11:21:45;8.23;;;1.70;;
68106;SDS011;54892;47.488;19.026;2022-09-24T11:28:24;3.10;;;1.65;;
68106;SDS011;54892;47.488;19.026;2022-09-24T11:31:43;3.40;;;1.40;;
68106;SDS011;54892;47.488;19.026;2022-09-24T11:34:58;1.83;;;1.20;;
68106;SDS011;54892;47.488;19.026;2022-09-24T11:38:19;2.62;;;1.20;;
68106;SDS011;54892;47.488;19.026;2022-09-24T11:41:33;2.90;;;1.23;;
68106;SDS011;54892;47.488;19.026;2022-09-24T11:44:49;12.70;;;1.40;;
68106;SDS011;54892;47.488;19.026;2022-09-24T11:51:35;3.35;;;1.35;;
68106;SDS011;54892;47.488;19.026;2022-09-24T11:54:51;5.10;;;1.50;;
68106;SDS011;54892;47.488;19.026;2022-09-24T11:58:04;5.40;;;1.60;;
68106;SDS011;54892;47.488;19.026;2022-09-24T12:01:14;3.05;;;1.20;;
68106;SDS011;54892;47.488;19.026;2022-09-24T12:04:23;4.18;;;1.58;;
68106;SDS011;54892;47.488;19.026;2022-09-24T12:07:33;2.72;;;1.40;;
68106;SDS011;54892;47.488;19.026;2022-09-24T12:10:42;5.53;;;1.60;;
68106;SDS011;54892;47.488;19.026;2022-09-24T12:13:51;1.87;;;1.30;;
68106;SDS011;54892;47.488;19.026;2022-09-24T12:17:03;2.60;;;1.62;;
68106;SDS011;54892;47.488;19.026;2022-09-24T12:20:14;1.83;;;1.15;;
68106;SDS011;54892;47.488;19.026;2022-09-24T12:23:23;1.55;;;1.20;;
68106;SDS011;54892;47.488;19.026;2022-09-24T12:26:31;3.70;;;1.87;;
68106;SDS011;54892;47.488;19.026;2022-09-24T12:29:39;4.87;;;1.85;;
68106;SDS011;54892;47.488;19.026;2022-09-24T12:33:07;3.97;;;1.42;;
68106;SDS011;54892;47.488;19.026;2022-09-24T12:36:16;1.98;;;1.50;;
68106;SDS011;54892;47.488;19.026;2022-09-24T12:39:25;3.30;;;1.85;;
68106;SDS011;54892;47.488;19.026;2022-09-24T12:42:33;2.47;;;1.35;;
68106;SDS011;54892;47.488;19.026;2022-09-24T12:45:41;2.30;;;1.60;;
68106;SDS011;54892;47.488;19.026;2022-09-24T12:48:45;1.67;;;1.30;;
68106;SDS011;54892;47.488;19.026;2022-09-24T12:51:49;4.50;;;1.83;;
68106;SDS011;54892;47.488;19.026;2022-09-24T12:54:54;2.10;;;1.20;;
68106;SDS011;54892;47.488;19.026;2022-09-24T12:58:02;1.60;;;1.50;;
68106;SDS011;54892;47.488;19.026;2022-09-24T13:01:10;1.50;;;1.30;;
68106;SDS011;54892;47.488;19.026;2022-09-24T13:04:25;2.70;;;1.30;;
68106;SDS011;54892;47.488;19.026;2022-09-24T13:07:30;2.53;;;1.53;;
68106;SDS011;54892;47.488;19.026;2022-09-24T13:10:35;6.00;;;2.03;;
68106;SDS011;54892;47.488;19.026;2022-09-24T13:13:40;5.50;;;1.55;;
68106;SDS011;54892;47.488;19.026;2022-09-24T13:16:45;5.62;;;2.05;;
68106;SDS011;54892;47.488;19.026;2022-09-24T13:22:59;4.75;;;1.87;;
68106;SDS011;54892;47.488;19.026;2022-09-24T13:26:28;1.95;;;1.60;;
68106;SDS011;54892;47.488;19.026;2022-09-24T13:29:37;3.92;;;1.35;;
68106;SDS011;54892;47.488;19.026;2022-09-24T13:32:42;4.28;;;1.42;;
68106;SDS011;54892;47.488;19.026;2022-09-24T13:35:52;5.53;;;1.62;;
68106;SDS011;54892;47.488;19.026;2022-09-24T13:39:06;3.87;;;1.60;;
68106;SDS011;54892;47.488;19.026;2022-09-24T13:42:18;4.35;;;2.30;;
68106;SDS011;54892;47.488;19.026;2022-09-24T13:45:25;2.78;;;1.60;;
68106;SDS011;54892;47.488;19.026;2022-09-24T13:48:32;3.17;;;1.65;;
68106;SDS011;54892;47.488;19.026;2022-09-24T13:51:38;5.82;;;1.73;;
68106;SDS011;54892;47.488;19.026;2022-09-24T13:54:46;2.22;;;1.30;;
68106;SDS011;54892;47.488;19.026;2022-09-24T13:57:53;6.15;;;2.10;;
68106;SDS011;54892;47.488;19.026;2022-09-24T14:00:59;8.82;;;2.30;;
68106;SDS011;54892;47.488;19.026;2022-09-24T14:04:13;2.67;;;1.35;;
68106;SDS011;54892;47.488;19.026;2022-09-24T14:07:19;8.65;;;2.10;;
68106;SDS011;54892;47.488;19.026;2022-09-24T14:10:23;1.98;;;1.25;;
68106;SDS011;54892;47.488;19.026;2022-09-24T14:13:26;2.92;;;1.65;;
68106;SDS011;54892;47.488;19.026;2022-09-24T14:16:31;4.20;;;2.03;;
68106;SDS011;54892;47.488;19.026;2022-09-24T14:19:34;3.73;;;1.53;;
68106;SDS011;54892;47.488;19.026;2022-09-24T14:22:38;4.28;;;2.00;;
68106;SDS011;54892;47.488;19.026;2022-09-24T14:25:45;1.92;;;1.50;;
68106;SDS011;54892;47.488;19.026;2022-09-24T14:28:49;7.97;;;1.60;;
68106;SDS011;54892;47.488;19.026;2022-09-24T14:31:55;8.70;;;2.25;;
68106;SDS011;54892;47.488;19.026;2022-09-24T14:35:03;3.35;;;2.00;;
68106;SDS011;54892;47.488;19.026;2022-09-24T14:38:11;7.05;;;1.73;;
68106;SDS011;54892;47.488;19.026;2022-09-24T14:41:17;5.95;;;1.70;;
68106;SDS011;54892;47.488;19.026;2022-09-24T14:44:23;4.82;;;2.30;;
68106;SDS011;54892;47.488;19.026;2022-09-24T14:47:30;17.58;;;2.42;;
68106;SDS011;54892;47.488;19.026;2022-09-24T14:50:36;6.32;;;1.70;;
68106;SDS011;54892;47.488;19.026;2022-09-24T14:53:40;4.90;;;1.90;;
68106;SDS011;54892;47.488;19.026;2022-09-24T14:56:44;2.42;;;1.70;;
68106;SDS011;54892;47.488;19.026;2022-09-24T14:59:47;2.60;;;1.40;;
68106;SDS011;54892;47.488;19.026;2022-09-24T15:02:56;3.75;;;1.62;;
68106;SDS011;54892;47.488;19.026;2022-09-24T15:06:05;4.00;;;1.80;;
68106;SDS011;54892;47.488;19.026;2022-09-24T15:09:19;5.47;;;1.60;;
68106;SDS011;54892;47.488;19.026;2022-09-24T15:12:27;2.42;;;1.65;;
68106;SDS011;54892;47.488;19.026;2022-09-24T15:15:32;3.10;;;1.55;;
68106;SDS011;54892;47.488;19.026;2022-09-24T15:18:37;8.10;;;1.85;;
68106;SDS011;54892;47.488;19.026;2022-09-24T15:21:41;6.60;;;2.67;;
68106;SDS011;54892;47.488;19.026;2022-09-24T15:24:44;2.40;;;1.58;;
68106;SDS011;54892;47.488;19.026;2022-09-24T15:27:47;4.07;;;1.90;;
68106;SDS011;54892;47.488;19.026;2022-09-24T15:30:53;7.22;;;2.35;;
68106;SDS011;54892;47.488;19.026;2022-09-24T15:33:57;1.77;;;1.45;;
68106;SDS011;54892;47.488;19.026;2022-09-24T15:37:00;4.07;;;2.00;;
68106;SDS011;54892;47.488;19.026;2022-09-24T15:40:04;2.50;;;1.90;;
68106;SDS011;54892;47.488;19.026;2022-09-24T15:43:12;3.40;;;2.07;;
68106;SDS011;54892;47.488;19.026;2022-09-24T15:46:20;5.03;;;2.22;;
68106;SDS011;54892;47.488;19.026;2022-09-24T15:49:25;3.92;;;1.85;;
68106;SDS011;54892;47.488;19.026;2022-09-24T15:52:28;2.15;;;1.87;;
68106;SDS011;54892;47.488;19.026;2022-09-24T15:55:34;4.68;;;2.10;;
68106;SDS011;54892;47.488;19.026;2022-09-24T15:58:38;6.93;;;2.20;;
68106;SDS011;54892;47.488;19.026;2022-09-24T16:01:42;2.42;;;1.80;;
68106;SDS011;54892;47.488;19.026;2022-09-24T16:04:47;2.65;;;2.00;;
68106;SDS011;54892;47.488;19.026;2022-09-24T16:07:50;6.17;;;2.50;;
68106;SDS011;54892;47.488;19.026;2022-09-24T16:10:53;7.25;;;2.62;;
68106;SDS011;54892;47.488;19.026;2022-09-24T16:13:56;5.25;;;2.47;;
68106;SDS011;54892;47.488;19.026;2022-09-24T16:17:00;4.55;;;2.00;;
68106;SDS011;54892;47.488;19.026;2022-09-24T16:20:05;4.65;;;2.30;;
68106;SDS011;54892;47.488;19.026;2022-09-24T16:23:11;3.55;;;2.30;;
68106;SDS011;54892;47.488;19.026;2022-09-24T16:26:15;3.10;;;1.90;;
68106;SDS011;54892;47.488;19.026;2022-09-24T16:29:19;6.50;;;1.80;;
68106;SDS011;54892;47.488;19.026;2022-09-24T16:32:22;9.38;;;2.85;;
68106;SDS011;54892;47.488;19.026;2022-09-24T16:35:28;4.68;;;2.58;;
68106;SDS011;54892;47.488;19.026;2022-09-24T16:38:32;2.28;;;2.00;;
68106;SDS011;54892;47.488;19.026;2022-09-24T16:41:36;5.65;;;2.37;;
68106;SDS011;54892;47.488;19.026;2022-09-24T16:44:39;7.00;;;3.53;;
68106;SDS011;54892;47.488;19.026;2022-09-24T16:47:42;7.53;;;4.00;;
68106;SDS011;54892;47.488;19.026;2022-09-24T16:50:46;6.25;;;3.58;;
68106;SDS011;54892;47.488;19.026;2022-09-24T16:53:52;3.10;;;2.25;;
68106;SDS011;54892;47.488;19.026;2022-09-24T16:56:55;5.50;;;2.70;;
68106;SDS011;54892;47.488;19.026;2022-09-24T16:59:59;3.40;;;2.15;;
68106;SDS011;54892;47.488;19.026;2022-09-24T17:03:03;4.60;;;2.23;;
68106;SDS011;54892;47.488;19.026;2022-09-24T17:06:08;5.53;;;2.05;;
68106;SDS011;54892;47.488;19.026;2022-09-24T17:09:19;6.12;;;2.10;;
68106;SDS011;54892;47.488;19.026;2022-09-24T17:12:41;6.15;;;2.28;;
68106;SDS011;54892;47.488;19.026;2022-09-24T17:15:45;6.15;;;2.67;;
68106;SDS011;54892;47.488;19.026;2022-09-24T17:18:48;6.28;;;2.03;;
68106;SDS011;54892;47.488;19.026;2022-09-24T17:21:56;4.87;;;2.78;;
68106;SDS011;54892;47.488;19.026;2022-09-24T17:24:59;7.30;;;3.07;;
68106;SDS011;54892;47.488;19.026;2022-09-24T17:28:02;7.72;;;3.53;;
68106;SDS011;54892;47.488;19.026;2022-09-24T17:31:06;6.72;;;3.05;;
68106;SDS011;54892;47.488;19.026;2022-09-24T17:34:10;6.47;;;2.90;;
68106;SDS011;54892;47.488;19.026;2022-09-24T17:37:17;7.00;;;3.00;;
68106;SDS011;54892;47.488;19.026;2022-09-24T17:40:20;6.97;;;3.37;;
68106;SDS011;54892;47.488;19.026;2022-09-24T17:43:24;6.10;;;3.33;;
68106;SDS011;54892;47.488;19.026;2022-09-24T17:46:29;7.97;;;3.50;;
68106;SDS011;54892;47.488;19.026;2022-09-24T17:49:35;7.28;;;3.05;;
68106;SDS011;54892;47.488;19.026;2022-09-24T17:52:39;8.45;;;3.35;;
68106;SDS011;54892;47.488;19.026;2022-09-24T17:55:45;11.50;;;3.62;;
68106;SDS011;54892;47.488;19.026;2022-09-24T17:58:49;12.82;;;4.03;;
68106;SDS011;54892;47.488;19.026;2022-09-24T18:01:53;8.60;;;3.53;;
68106;SDS011;54892;47.488;19.026;2022-09-24T18:04:57;10.25;;;4.12;;
68106;SDS011;54892;47.488;19.026;2022-09-24T18:08:01;9.45;;;3.37;;
68106;SDS011;54892;47.488;19.026;2022-09-24T18:11:06;7.90;;;3.55;;
68106;SDS011;54892;47.488;19.026;2022-09-24T18:17:15;9.13;;;4.12;;
68106;SDS011;54892;47.488;19.026;2022-09-24T18:20:18;9.25;;;4.68;;
68106;SDS011;54892;47.488;19.026;2022-09-24T18:23:23;6.82;;;3.67;;
68106;SDS011;54892;47.488;19.026;2022-09-24T18:26:26;8.10;;;3.47;;
68106;SDS011;54892;47.488;19.026;2022-09-24T18:29:32;12.60;;;6.18;;
68106;SDS011;54892;47.488;19.026;2022-09-24T18:32:36;12.88;;;6.57;;
68106;SDS011;54892;47.488;19.026;2022-09-24T18:35:40;12.40;;;6.60;;
68106;SDS011;54892;47.488;19.026;2022-09-24T18:38:45;11.30;;;6.18;;
68106;SDS011;54892;47.488;19.026;2022-09-24T18:41:49;13.65;;;7.10;;
68106;SDS011;54892;47.488;19.026;2022-09-24T18:44:52;12.50;;;7.82;;
68106;SDS011;54892;47.488;19.026;2022-09-24T18:47:55;15.00;;;7.80;;